CPX787 Details

Departure: Chek Lap Kok International (VHHH)
Arrival: Kingsford Smith International Airport (YSSY)
Route: OCEAN V5 SABNO A583 IBOBI A583 ZAM A461 BUTPA A461 DN J251 TN T74 ENPAG H319 TARAL Y59 RIVET


Current Weather Information
VHHH 221230Z 15010KT 9999 FEW012 26/22 Q1012 NOSIG
YSSY 221230Z 26007KT 9999 FEW032 SCT180 BKN200 21/18 Q1016 NOSIG